createdAt,value
2022-10-24T00:01:25.381Z,79.78
2022-10-24T00:04:31.671Z,79.75
2022-10-24T00:07:37.983Z,79.94
2022-10-24T00:10:44.810Z,81.45
2022-10-24T00:13:51.694Z,82.37
2022-10-24T00:16:56.991Z,82.29
2022-10-24T00:20:05.388Z,82.26
2022-10-24T00:23:11.058Z,81.85
2022-10-24T00:26:17.617Z,82.20
2022-10-24T00:29:23.604Z,81.12
2022-10-24T00:32:30.460Z,80.80
2022-10-24T00:35:36.322Z,80.62
2022-10-24T00:38:42.957Z,80.73
2022-10-24T00:41:53.081Z,80.16
2022-10-24T00:45:00.348Z,81.41
2022-10-24T00:48:06.111Z,82.04
2022-10-24T00:51:19.434Z,81.75
2022-10-24T00:54:26.112Z,81.47
2022-10-24T00:57:59.670Z,81.82
2022-10-24T01:01:05.387Z,81.84
2022-10-24T01:04:10.273Z,81.66
2022-10-24T01:07:30.090Z,81.64
2022-10-24T01:10:47.177Z,80.89
2022-10-24T01:14:16.243Z,80.75
2022-10-24T01:17:39.394Z,81.34
2022-10-24T01:21:25.696Z,81.24
2022-10-24T01:25:08.363Z,81.16
2022-10-24T01:28:27.228Z,81.49
2022-10-24T01:31:52.593Z,82.17
2022-10-24T01:35:11.476Z,82.26
2022-10-24T01:38:29.333Z,83.12
2022-10-24T01:41:27.209Z,83.25
2022-10-24T01:44:42.694Z,83.81
2022-10-24T01:47:56.523Z,84.64
2022-10-24T01:51:03.522Z,85.09
2022-10-24T01:54:11.005Z,84.98
2022-10-24T01:57:17.756Z,84.73
2022-10-24T02:00:24.597Z,85.00
2022-10-24T02:03:39.575Z,85.16
2022-10-24T02:06:54.841Z,85.36
2022-10-24T02:10:00.914Z,85.40
2022-10-24T02:13:10.849Z,85.53
2022-10-24T02:16:17.019Z,85.67
2022-10-24T02:19:23.208Z,85.56
2022-10-24T02:22:58.277Z,85.48
2022-10-24T02:26:05.408Z,85.26
2022-10-24T02:29:13.097Z,85.29
2022-10-24T02:32:21.963Z,85.48
2022-10-24T02:35:22.462Z,85.89
2022-10-24T02:38:36.718Z,86.03
2022-10-24T02:41:46.797Z,86.27
2022-10-24T02:44:55.429Z,85.72
2022-10-24T02:48:01.307Z,86.08
2022-10-24T02:51:06.540Z,86.28
2022-10-24T02:54:12.633Z,86.57
2022-10-24T02:57:21.032Z,86.91
2022-10-24T03:00:27.176Z,86.87
2022-10-24T03:03:33.156Z,86.22
2022-10-24T03:06:39.006Z,86.74
2022-10-24T03:09:45.512Z,87.23
2022-10-24T03:12:51.275Z,88.01
2022-10-24T03:15:57.983Z,87.91
2022-10-24T03:18:57.490Z,87.68
2022-10-24T03:21:50.595Z,87.40
2022-10-24T03:24:57.474Z,86.69
2022-10-24T03:28:03.695Z,87.38
2022-10-24T03:31:10.587Z,87.62
2022-10-24T03:34:17.106Z,87.80
2022-10-24T03:37:22.827Z,86.96
2022-10-24T03:40:27.572Z,87.15
2022-10-24T03:43:32.874Z,87.26
2022-10-24T03:46:40.902Z,87.05
2022-10-24T03:49:47.094Z,87.22
2022-10-24T03:52:54.017Z,86.33
2022-10-24T03:55:59.959Z,85.71
2022-10-24T03:59:06.024Z,85.64
2022-10-24T04:02:12.644Z,85.46
2022-10-24T04:05:18.611Z,85.48
2022-10-24T04:08:25.225Z,85.27
2022-10-24T04:11:31.669Z,86.02
2022-10-24T04:14:31.149Z,86.37
2022-10-24T04:17:38.904Z,87.53
2022-10-24T04:20:43.962Z,88.78
2022-10-24T04:23:51.549Z,88.84
2022-10-24T04:26:57.089Z,88.26
2022-10-24T04:30:03.776Z,86.56
2022-10-24T04:33:09.585Z,86.69
2022-10-24T04:36:15.812Z,86.29
2022-10-24T04:39:21.751Z,86.24
2022-10-24T04:42:29.035Z,85.33
2022-10-24T04:45:34.423Z,85.63
2022-10-24T04:48:40.662Z,85.67
2022-10-24T04:51:46.216Z,85.81
2022-10-24T04:54:52.524Z,85.64
2022-10-24T04:57:57.962Z,84.62
2022-10-24T05:01:04.222Z,84.69
2022-10-24T05:04:10.624Z,84.60
2022-10-24T05:07:17.042Z,84.90
2022-10-24T05:10:23.913Z,84.67
2022-10-24T05:13:32.975Z,84.77
2022-10-24T05:16:38.858Z,85.25
2022-10-24T05:19:46.171Z,84.55
2022-10-24T05:22:51.673Z,84.50
2022-10-24T05:25:58.084Z,84.48
2022-10-24T05:29:04.702Z,84.91
2022-10-24T05:32:11.230Z,85.06
2022-10-24T05:35:16.860Z,85.26
2022-10-24T05:38:22.716Z,84.92
2022-10-24T05:41:29.474Z,84.76
2022-10-24T05:44:35.364Z,83.90
2022-10-24T05:47:42.218Z,83.83
2022-10-24T05:50:49.629Z,83.22
2022-10-24T05:53:56.508Z,82.72
2022-10-24T05:57:20.773Z,83.13
2022-10-24T06:00:29.210Z,82.63
2022-10-24T06:03:35.001Z,82.35
2022-10-24T06:06:41.761Z,81.55
2022-10-24T06:09:48.518Z,80.80
2022-10-24T06:12:55.742Z,80.87
2022-10-24T06:16:01.782Z,80.63
2022-10-24T06:19:08.226Z,79.73
2022-10-24T06:22:13.245Z,80.02
2022-10-24T06:25:19.677Z,79.11
2022-10-24T06:28:25.183Z,79.24
2022-10-24T06:31:26.557Z,78.68
2022-10-24T06:34:26.062Z,79.49
2022-10-24T06:37:31.850Z,79.90
2022-10-24T06:40:38.429Z,80.14
2022-10-24T06:43:44.727Z,81.05
2022-10-24T06:46:51.197Z,81.43
2022-10-24T06:49:57.529Z,81.87
2022-10-24T06:53:07.243Z,81.39
2022-10-24T06:56:20.155Z,81.36
2022-10-24T06:59:29.018Z,80.75
2022-10-24T07:02:35.185Z,81.19
2022-10-24T07:05:41.587Z,80.63
2022-10-24T07:08:47.961Z,79.93
2022-10-24T07:11:54.071Z,79.33
2022-10-24T07:14:59.406Z,78.53
2022-10-24T07:18:04.464Z,78.68
2022-10-24T07:21:10.435Z,79.32
2022-10-24T07:24:16.572Z,80.05
2022-10-24T07:27:22.232Z,79.62
2022-10-24T07:30:32.308Z,79.00
2022-10-24T07:33:38.322Z,78.89
2022-10-24T07:36:44.612Z,78.75
2022-10-24T07:39:49.721Z,78.48
2022-10-24T07:42:56.430Z,78.86
2022-10-24T07:49:08.250Z,78.10
2022-10-24T07:52:14.830Z,77.42
2022-10-24T07:55:22.807Z,77.19
2022-10-24T07:58:28.302Z,76.66
2022-10-24T08:01:36.925Z,76.49
2022-10-24T08:04:43.910Z,76.42
2022-10-24T08:07:56.083Z,75.73
2022-10-24T08:14:08.907Z,72.45
2022-10-24T08:17:14.892Z,71.10
2022-10-24T08:20:21.606Z,71.38
2022-10-24T08:23:26.903Z,71.08
2022-10-24T08:26:35.533Z,70.75
2022-10-24T08:29:36.625Z,70.63
2022-10-24T08:32:43.457Z,70.50
2022-10-24T08:35:49.151Z,68.75
2022-10-24T08:38:54.059Z,67.91
2022-10-24T08:42:18.116Z,68.59
2022-10-24T08:45:35.756Z,69.32
2022-10-24T08:48:49.366Z,69.27
2022-10-24T08:52:04.434Z,69.32
2022-10-24T08:55:48.010Z,69.92
2022-10-24T08:58:28.621Z,69.65
2022-10-24T09:02:00.620Z,68.70
2022-10-24T09:05:09.869Z,68.61
2022-10-24T09:08:21.718Z,66.66
2022-10-24T09:11:32.671Z,67.73
2022-10-24T09:14:43.173Z,68.00
2022-10-24T09:17:50.518Z,67.59
2022-10-24T09:20:56.974Z,65.17
2022-10-24T09:24:02.497Z,66.21
2022-10-24T09:27:11.220Z,64.91
2022-10-24T09:30:18.366Z,65.90
2022-10-24T09:33:39.548Z,65.22
2022-10-24T09:36:44.316Z,65.24
2022-10-24T09:39:50.096Z,64.76
2022-10-24T09:42:55.594Z,65.75
2022-10-24T09:46:12.007Z,65.67
2022-10-24T09:49:22.832Z,64.27
2022-10-24T09:52:39.746Z,63.38
2022-10-24T09:55:45.844Z,62.98
2022-10-24T09:58:44.567Z,64.03
2022-10-24T10:01:30.792Z,63.72
2022-10-24T10:04:27.040Z,62.81
2022-10-24T10:07:34.058Z,62.95
2022-10-24T10:10:48.719Z,63.72
2022-10-24T10:14:03.673Z,65.41
2022-10-24T10:17:17.649Z,66.36
2022-10-24T10:20:28.638Z,65.72
2022-10-24T10:23:52.419Z,66.00
2022-10-24T10:27:00.600Z,64.83
2022-10-24T10:30:31.051Z,65.10
2022-10-24T10:33:59.880Z,66.07
2022-10-24T10:37:22.407Z,66.08
2022-10-24T10:40:40.052Z,65.87
2022-10-24T10:44:05.137Z,67.19
2022-10-24T10:47:42.175Z,66.72
2022-10-24T10:50:56.598Z,66.24
2022-10-24T10:54:23.690Z,65.35
2022-10-24T10:57:45.299Z,66.44
2022-10-24T11:01:10.480Z,64.94
2022-10-24T11:04:37.431Z,63.80
2022-10-24T11:07:53.814Z,63.87
2022-10-24T11:11:08.753Z,63.68
2022-10-24T11:14:46.432Z,63.68
2022-10-24T11:18:27.868Z,62.76
2022-10-24T11:21:35.408Z,61.92
2022-10-24T11:24:41.929Z,61.81
2022-10-24T11:27:54.207Z,61.86
2022-10-24T11:31:09.935Z,60.55
2022-10-24T11:34:23.079Z,60.82
2022-10-24T11:37:45.223Z,61.70
2022-10-24T11:40:52.585Z,61.83
2022-10-24T11:43:57.783Z,60.69
2022-10-24T11:47:08.491Z,61.90
2022-10-24T11:50:38.024Z,62.44
2022-10-24T11:53:53.391Z,62.61
2022-10-24T11:57:10.885Z,63.14
2022-10-24T12:00:17.012Z,63.84
2022-10-24T12:03:43.374Z,63.26
2022-10-24T12:07:08.870Z,63.12
2022-10-24T12:10:46.639Z,64.00
2022-10-24T12:14:17.820Z,64.08
2022-10-24T12:17:45.718Z,64.42
2022-10-24T12:20:51.933Z,63.90
2022-10-24T12:23:56.848Z,64.50
2022-10-24T12:27:17.603Z,64.43
2022-10-24T12:30:34.637Z,64.60
2022-10-24T12:33:41.122Z,63.12
2022-10-24T12:37:35.111Z,62.77
2022-10-24T12:41:18.710Z,63.93
2022-10-24T12:44:45.117Z,64.02
2022-10-24T12:48:00.829Z,65.46
2022-10-24T12:51:19.076Z,65.41
2022-10-24T12:54:33.345Z,65.36
2022-10-24T12:57:52.348Z,65.82
2022-10-24T13:01:15.527Z,66.18
2022-10-24T13:05:16.946Z,66.29
2022-10-24T13:08:48.824Z,66.48
2022-10-24T13:12:18.609Z,66.58
2022-10-24T13:15:32.647Z,67.36
2022-10-24T13:19:10.360Z,66.95
2022-10-24T13:22:16.266Z,67.21
2022-10-24T13:25:50.761Z,67.52
2022-10-24T13:28:55.024Z,67.96
2022-10-24T13:32:04.712Z,68.45
2022-10-24T13:35:10.606Z,68.77
2022-10-24T13:38:16.049Z,69.13
2022-10-24T13:41:22.796Z,69.44
2022-10-24T13:44:55.325Z,69.58
2022-10-24T13:48:05.888Z,70.14
2022-10-24T13:51:19.673Z,70.51
2022-10-24T13:54:32.010Z,70.66
2022-10-24T13:57:47.992Z,71.41
2022-10-24T14:00:59.523Z,71.56
2022-10-24T14:03:59.387Z,71.78
2022-10-24T14:07:05.713Z,71.73
2022-10-24T14:10:26.732Z,71.99
2022-10-24T14:13:32.398Z,71.34
2022-10-24T14:16:46.389Z,70.84
2022-10-24T14:19:55.498Z,70.41
2022-10-24T14:23:01.561Z,70.69
2022-10-24T14:26:22.428Z,70.90
2022-10-24T14:29:41.468Z,71.01
2022-10-24T14:32:46.772Z,70.87
2022-10-24T14:35:56.678Z,70.90
2022-10-24T14:39:03.225Z,70.36
2022-10-24T14:42:08.949Z,71.15
2022-10-24T14:45:14.631Z,72.03
2022-10-24T14:48:23.388Z,72.20
2022-10-24T14:51:44.591Z,71.52
2022-10-24T14:54:50.240Z,71.50
2022-10-24T14:58:03.516Z,71.62
2022-10-24T15:01:09.858Z,71.92
2022-10-24T15:04:20.226Z,72.14
2022-10-24T15:07:52.314Z,71.82
2022-10-24T15:10:54.438Z,72.02
2022-10-24T15:14:07.203Z,72.19
2022-10-24T15:17:11.265Z,73.21
2022-10-24T15:20:16.859Z,73.17
2022-10-24T15:23:34.852Z,72.82
2022-10-24T15:26:52.692Z,72.89
2022-10-24T15:29:59.663Z,72.75
2022-10-24T15:33:05.403Z,72.72
2022-10-24T15:36:11.545Z,72.88
2022-10-24T15:39:24.171Z,73.51
2022-10-24T15:42:29.692Z,73.46
2022-10-24T15:45:35.439Z,73.31
2022-10-24T15:48:42.105Z,73.47
2022-10-24T15:51:50.362Z,73.96
2022-10-24T15:54:56.654Z,74.03
2022-10-24T15:58:04.869Z,73.75
2022-10-24T16:00:58.182Z,73.98
2022-10-24T16:04:05.216Z,74.14
2022-10-24T16:07:11.177Z,74.40
2022-10-24T16:10:16.992Z,74.51
2022-10-24T16:13:24.853Z,74.42
2022-10-24T16:16:30.480Z,74.92
2022-10-24T16:19:38.090Z,74.94
2022-10-24T16:22:43.887Z,74.73
2022-10-24T16:25:51.754Z,74.51
2022-10-24T16:28:58.297Z,74.69
2022-10-24T16:32:04.845Z,74.65
2022-10-24T16:35:10.035Z,74.77
2022-10-24T16:38:17.561Z,74.48
2022-10-24T16:41:29.428Z,74.14
2022-10-24T16:44:36.313Z,74.42
2022-10-24T16:47:42.339Z,74.81
2022-10-24T16:50:48.501Z,75.03
2022-10-24T16:53:48.527Z,75.23
2022-10-24T16:56:57.049Z,75.56
2022-10-24T17:00:02.408Z,74.95
2022-10-24T17:03:08.831Z,73.68
2022-10-24T17:06:14.501Z,73.91
2022-10-24T17:09:21.856Z,74.79
2022-10-24T17:12:28.246Z,75.18
2022-10-24T17:15:34.933Z,75.92
2022-10-24T17:18:40.101Z,76.07
2022-10-24T17:21:48.675Z,75.91
2022-10-24T17:24:47.824Z,75.74
2022-10-24T17:27:54.450Z,75.62
2022-10-24T17:31:01.039Z,75.70
2022-10-24T17:34:06.277Z,75.62
2022-10-24T17:37:30.284Z,76.13
2022-10-24T17:40:37.761Z,76.18
2022-10-24T17:43:42.932Z,76.91
2022-10-24T17:46:48.569Z,76.66
2022-10-24T17:49:53.892Z,76.52
2022-10-24T17:53:00.430Z,76.32
2022-10-24T17:56:06.154Z,76.27
2022-10-24T17:59:11.420Z,76.00
2022-10-24T18:02:16.683Z,75.96
2022-10-24T18:05:22.648Z,75.63
2022-10-24T18:08:28.650Z,74.96
2022-10-24T18:11:34.543Z,76.08
2022-10-24T18:14:41.031Z,76.14
2022-10-24T18:17:46.805Z,75.96
2022-10-24T18:20:53.040Z,76.08
2022-10-24T18:23:58.471Z,77.07
2022-10-24T18:27:04.355Z,77.46
2022-10-24T18:30:10.897Z,76.83
2022-10-24T18:33:16.250Z,76.51
2022-10-24T18:36:26.843Z,76.86
2022-10-24T18:39:31.964Z,76.64
2022-10-24T18:42:50.367Z,76.74
2022-10-24T18:45:59.696Z,76.96
2022-10-24T18:49:08.236Z,76.15
2022-10-24T18:52:44.056Z,76.45
2022-10-24T18:55:51.965Z,77.18
2022-10-24T18:58:59.059Z,76.58
2022-10-24T19:02:42.613Z,76.77
2022-10-24T19:05:55.366Z,76.97
2022-10-24T19:09:02.224Z,77.64
2022-10-24T19:12:08.540Z,77.74
2022-10-24T19:15:13.564Z,77.94
2022-10-24T19:18:20.566Z,78.42
2022-10-24T19:21:26.790Z,78.66
2022-10-24T19:24:32.406Z,78.50
2022-10-24T19:27:39.524Z,78.45
2022-10-24T19:30:46.893Z,78.84
2022-10-24T19:33:53.239Z,79.50
2022-10-24T19:36:59.544Z,79.91
2022-10-24T19:40:04.926Z,79.80
2022-10-24T19:43:09.657Z,79.63
2022-10-24T19:46:20.507Z,79.17
2022-10-24T19:49:25.653Z,79.78
2022-10-24T19:52:31.292Z,79.78
2022-10-24T19:55:29.789Z,79.65
2022-10-24T19:58:29.633Z,80.04
2022-10-24T20:01:38.612Z,80.51
2022-10-24T20:04:48.987Z,79.97
2022-10-24T20:07:53.911Z,79.96
2022-10-24T20:11:06.430Z,79.21
2022-10-24T20:14:13.610Z,79.05
2022-10-24T20:17:19.961Z,78.88
2022-10-24T20:20:26.249Z,78.62
2022-10-24T20:23:32.313Z,78.37
2022-10-24T20:26:39.552Z,78.72
2022-10-24T20:29:45.751Z,79.22
2022-10-24T20:32:51.789Z,80.53
2022-10-24T20:35:57.712Z,80.19
2022-10-24T20:39:06.495Z,80.38
2022-10-24T20:42:11.402Z,80.48
2022-10-24T20:45:21.928Z,81.15
2022-10-24T20:48:23.984Z,80.60
2022-10-24T20:51:31.910Z,81.08
2022-10-24T20:54:37.206Z,81.36
2022-10-24T20:57:44.475Z,81.17
2022-10-24T21:00:51.007Z,81.50
2022-10-24T21:03:57.914Z,81.97
2022-10-24T21:07:04.759Z,82.29
2022-10-24T21:10:11.206Z,82.75
2022-10-24T21:13:18.560Z,82.88
2022-10-24T21:16:24.192Z,82.91
2022-10-24T21:19:29.485Z,82.39
2022-10-24T21:22:35.091Z,82.63
2022-10-24T21:25:40.189Z,82.92
2022-10-24T21:28:46.035Z,83.29
2022-10-24T21:31:52.703Z,83.60
2022-10-24T21:34:57.909Z,83.78
2022-10-24T21:38:05.972Z,83.21
2022-10-24T21:41:19.915Z,83.04
2022-10-24T21:44:25.978Z,83.43
2022-10-24T21:47:31.879Z,83.74
2022-10-24T21:50:37.893Z,83.66
2022-10-24T21:53:43.247Z,83.99
2022-10-24T21:56:50.490Z,84.09
2022-10-24T21:59:56.320Z,84.81
2022-10-24T22:03:04.060Z,82.54
2022-10-24T22:06:04.474Z,83.48
2022-10-24T22:09:03.881Z,84.04
2022-10-24T22:12:09.756Z,84.93
2022-10-24T22:15:15.251Z,85.86
2022-10-24T22:18:21.955Z,86.95
2022-10-24T22:21:37.874Z,87.50
2022-10-24T22:24:44.018Z,87.71
2022-10-24T22:27:50.548Z,88.62
2022-10-24T22:30:57.234Z,88.64
2022-10-24T22:34:02.836Z,88.76
2022-10-24T22:37:34.570Z,89.42
2022-10-24T22:40:41.956Z,89.25
2022-10-24T22:43:47.236Z,88.09
2022-10-24T22:47:40.541Z,89.20
2022-10-24T22:51:09.479Z,89.92
2022-10-24T22:54:15.705Z,89.76
2022-10-24T22:57:21.444Z,89.24
2022-10-24T23:00:28.188Z,89.66
2022-10-24T23:03:47.731Z,90.03
2022-10-24T23:07:05.044Z,90.12
2022-10-24T23:10:10.642Z,90.03
2022-10-24T23:13:17.672Z,89.92
2022-10-24T23:16:38.467Z,89.85
2022-10-24T23:19:46.001Z,89.91
2022-10-24T23:22:58.427Z,89.61
2022-10-24T23:26:01.474Z,88.32
2022-10-24T23:29:21.801Z,88.45
2022-10-24T23:32:31.631Z,88.05
2022-10-24T23:35:37.770Z,87.73
2022-10-24T23:38:42.993Z,88.10
2022-10-24T23:41:43.101Z,87.86
2022-10-24T23:44:49.759Z,87.92
2022-10-24T23:48:20.356Z,88.40
2022-10-24T23:51:29.807Z,87.89
2022-10-24T23:54:40.504Z,88.46
2022-10-24T23:57:48.564Z,88.14
